Главная страница
METAR-TAF:

METAR-TAF

Аэропорты :

Мехрабад

Тегеран, Иран

широта: 35-41N, долгота: 051-21E, высота над уровнем моря: 1204 м

Текущие метеонаблюдения

Эта сводка был подготовлена 17 минут назад, в 10:00 UTC
Ветер 6 Узел от южный
Температура 39°C
Влажность 10%
Давление 1004 hPa
Видимость 10 км и более
небольшая облачность на высоте 4000 фута

METAR: OIII 161000Z 18006KT 9999 FEW040 39/02 Q1003 A2965

Время: 14:47 (10:17 UTC)

Прогноз

Эта сводка был подготовлена 23 часа и 7 минут назад, в 11:10 UTC
Прогноз действительный с 15-го 12 UTC до 16-го 18 UTC
Ветер 10 Узел от восточно-юго-восточный
Видимость: 8000 м
небольшая облачность на высоте 4500 фута
временами
С 16-го 08 UTC до 16-го 15 UTC
Ветер 17 Узел от юго-восточный

TAF: OIII 151110Z 1512/1618 12005MPS 8000 FEW045 TEMPO 1608/1615 14009MPS

Метеонаблюдения и прогнозы для более 4000 аэропортов (сводки METAR и TAF).

Имеющиеся станции представлены на карте желтыми и красными точками.

Чтобы увидеть название станции, наведите на нее мышь.

Затем щелкните, чтобы увидеть метеонаблюдения и метеопрогнозы.

Управление картой: чтобы увеличить масштаб, щелкните зеленые кнопки с черным крестиком; чтобы уменьшить масштаб, щелкните зеленую кнопку с тире; для просмотра соседних карт щелкайте зеленые стрелки.


METAR-TAF: